Time;durP1;ratioP1;P1;durP2;ratioP2;P2;SDS_P1;SDS_P2;PMS_P1;PMS_P2;Temp;Humidity;BMP_temperature;BMP_pressure;BME280_temperature;BME280_humidity;BME280_pressure;Samples;Min_cycle;Max_cycle;Signal;HPM_P1;HPM_P2
2022/05/27 00:01:50;;;;;;;15.50;4.57;;;14.00;99.90;;;;;;4996093;28;20401;-76
2022/05/27 00:04:16;;;;;;;12.63;3.63;;;14.00;99.90;;;;;;4996687;28;20056;-77
2022/05/27 00:06:42;;;;;;;20.20;5.28;;;13.90;99.90;;;;;;4998162;28;20044;-77
2022/05/27 00:09:07;;;;;;;13.63;4.07;;;14.10;99.90;;;;;;4996610;28;20145;-77
2022/05/27 00:11:33;;;;;;;17.88;4.60;;;14.00;99.90;;;;;;4994803;28;20047;-76
2022/05/27 00:13:59;;;;;;;22.13;4.25;;;14.00;99.90;;;;;;5000646;28;20053;-76
2022/05/27 00:16:25;;;;;;;15.13;2.72;;;14.10;99.90;;;;;;4997724;28;20049;-77
2022/05/27 00:18:51;;;;;;;17.88;4.18;;;14.00;99.90;;;;;;4995905;28;20042;-77
2022/05/27 00:21:17;;;;;;;14.32;3.80;;;14.00;99.90;;;;;;5001034;28;20049;-77
2022/05/27 00:23:43;;;;;;;15.40;3.47;;;14.00;99.90;;;;;;5006263;28;20042;-77
2022/05/27 00:26:09;;;;;;;13.95;3.88;;;13.90;99.90;;;;;;5005008;28;20065;-77
2022/05/27 00:28:35;;;;;;;22.42;4.93;;;14.00;99.90;;;;;;4996959;28;20038;-77
2022/05/27 00:31:00;;;;;;;15.93;4.03;;;13.90;99.90;;;;;;4994511;28;20140;-77
2022/05/27 00:33:26;;;;;;;20.67;4.55;;;13.90;99.90;;;;;;4995457;28;20041;-76
2022/05/27 00:35:52;;;;;;;14.35;2.80;;;13.70;99.90;;;;;;4998523;28;20044;-77
2022/05/27 00:38:18;;;;;;;19.45;4.05;;;13.70;99.90;;;;;;4993146;28;20050;-76
2022/05/27 00:40:49;;;;;;;14.90;3.75;;;13.80;99.90;;;;;;4997232;28;20038;-76
2022/05/27 00:43:16;;;;;;;14.90;3.85;;;13.60;99.90;;;;;;4995476;28;20046;-76
2022/05/27 00:45:45;;;;;;;19.00;3.55;;;13.70;99.90;;;;;;4998113;28;20053;-77
2022/05/27 00:48:14;;;;;;;18.55;4.82;;;13.60;99.90;;;;;;4997122;28;20049;-77
2022/05/27 00:50:42;;;;;;;15.85;3.47;;;13.70;99.90;;;;;;5003372;28;20539;-77
2022/05/27 00:53:10;;;;;;;17.45;4.30;;;13.50;99.90;;;;;;5003083;28;20069;-76
2022/05/27 00:55:49;;;;;;;18.23;4.00;;;13.50;99.90;;;;;;4998492;28;20045;-76
2022/05/27 00:58:24;;;;;;;11.85;2.78;;;13.60;99.90;;;;;;4995149;28;20038;-76
2022/05/27 01:00:50;;;;;;;18.27;4.22;;;13.60;99.90;;;;;;4995085;28;20065;-77
2022/05/27 01:03:16;;;;;;;16.35;3.38;;;13.50;99.90;;;;;;4996329;28;20475;-77
2022/05/27 01:05:46;;;;;;;25.92;4.00;;;13.40;99.90;;;;;;4996810;28;20049;-76
2022/05/27 01:08:17;;;;;;;18.65;3.13;;;13.40;99.90;;;;;;4995885;28;20050;-77
2022/05/27 01:11:01;;;;;;;19.65;3.50;;;13.50;99.90;;;;;;5000085;28;20042;-77
2022/05/27 01:13:46;;;;;;;27.88;4.32;;;13.50;99.90;;;;;;4993706;28;20057;-77
2022/05/27 01:16:20;;;;;;;19.45;4.28;;;13.30;99.90;;;;;;4996602;28;20060;-75
2022/05/27 01:22:33;;;;;;;16.02;5.20;;;13.30;99.90;;;;;;4992224;28;20041;-76
2022/05/27 01:25:17;;;;;;;12.50;3.05;;;13.20;99.90;;;;;;4994587;28;20053;-76
2022/05/27 01:28:01;;;;;;;13.20;4.13;;;13.10;99.90;;;;;;4995920;28;20405;-76
2022/05/27 01:30:40;;;;;;;18.02;3.28;;;13.10;99.90;;;;;;4993632;28;20578;-76
2022/05/27 01:33:14;;;;;;;13.63;5.07;;;13.10;99.90;;;;;;4996390;28;20038;-76
2022/05/27 01:35:43;;;;;;;20.98;4.05;;;13.00;99.90;;;;;;4995636;28;20053;-76
2022/05/27 01:38:28;;;;;;;16.48;2.85;;;13.20;99.90;;;;;;4991164;28;20087;-76
2022/05/27 01:40:59;;;;;;;13.38;3.03;;;13.10;99.90;;;;;;4964138;28;20067;-76
2022/05/27 01:43:33;;;;;;;;;;;13.00;99.90;;;;;;4998779;28;20050;-76
2022/05/27 01:46:13;;;;;;;13.85;4.03;;;12.90;99.90;;;;;;4996309;28;21150;-76
2022/05/27 01:49:04;;;;;;;10.73;3.40;;;12.90;99.90;;;;;;4978931;22;20576;-76
2022/05/27 01:51:32;;;;;;;9.57;2.78;;;12.90;99.90;;;;;;4937964;28;20074;-76
2022/05/27 01:54:21;;;;;;;13.95;3.42;;;12.90;99.90;;;;;;4939003;28;20047;-76
2022/05/27 01:57:05;;;;;;;21.67;4.63;;;12.90;99.90;;;;;;4939277;28;20109;-76
2022/05/27 02:00:00;;;;;;;9.90;2.20;;;12.80;99.90;;;;;;4941506;28;20082;-76
2022/05/27 02:02:29;;;;;;;14.10;3.03;;;12.90;99.90;;;;;;4944268;28;20039;-76
2022/05/27 02:05:18;;;;;;;20.52;3.80;;;12.80;99.90;;;;;;4944337;28;20035;-76
2022/05/27 02:07:54;;;;;;;17.30;5.10;;;12.80;99.90;;;;;;4945993;28;20039;-76
2022/05/27 02:10:41;;;;;;;12.48;3.45;;;12.80;99.90;;;;;;4941377;28;20071;-76
2022/05/27 02:13:19;;;;;;;14.52;2.95;;;12.80;99.90;;;;;;4937687;28;20043;-76
2022/05/27 02:15:47;;;;;;;12.32;3.25;;;12.80;99.90;;;;;;4938981;28;20036;-77
2022/05/27 02:18:37;;;;;;;15.57;3.53;;;12.80;99.90;;;;;;4937799;28;21044;-75
2022/05/27 02:21:27;;;;;;;11.75;2.53;;;12.80;99.90;;;;;;4953412;28;20510;-75
2022/05/27 02:24:18;;;;;;;13.80;3.45;;;12.70;99.90;;;;;;4936359;28;20093;-75
2022/05/27 02:26:58;;;;;;;19.88;3.90;;;12.70;99.90;;;;;;4939138;28;20498;-75
2022/05/27 02:29:29;;;;;;;15.38;3.65;;;12.70;99.90;;;;;;4941158;28;20051;-75
2022/05/27 02:32:02;;;;;;;21.67;5.47;;;12.70;99.90;;;;;;4940354;28;20115;-75
2022/05/27 02:37:28;;;;;;;13.32;3.20;;;12.60;99.90;;;;;;4938473;28;20083;-75
2022/05/27 02:39:57;;;;;;;14.07;2.78;;;12.50;99.90;;;;;;4938906;28;20090;-75
2022/05/27 02:42:28;;;;;;;18.55;4.60;;;12.50;99.90;;;;;;4945441;28;20043;-76
2022/05/27 02:45:17;;;;;;;13.40;4.05;;;12.50;99.90;;;;;;4944678;28;20054;-75
2022/05/27 02:48:12;;;;;;;11.10;3.00;;;12.30;99.90;;;;;;4931169;28;20515;-75
2022/05/27 02:51:04;;;;;;;14.02;3.35;;;12.40;99.90;;;;;;4922079;29;20078;-75
2022/05/27 02:53:50;;;;;;;9.65;2.75;;;12.20;99.90;;;;;;4944605;28;20047;-74
2022/05/27 02:56:26;;;;;;;11.02;3.50;;;12.30;99.90;;;;;;4941520;28;20045;-76
2022/05/27 02:58:53;;;;;;;12.45;2.85;;;12.20;99.90;;;;;;4937954;28;20050;-75
2022/05/27 03:01:19;;;;;;;13.05;3.83;;;12.10;99.90;;;;;;4938556;28;20039;-74
2022/05/27 03:03:44;;;;;;;15.20;4.07;;;12.10;99.90;;;;;;4939912;28;20039;-74
2022/05/27 03:06:59;;;;;;;11.73;2.85;;;12.10;99.90;;;;;;4949289;28;20043;-73
2022/05/27 03:09:37;;;;;;;15.43;3.55;;;12.10;99.90;;;;;;4934170;28;20058;-74
2022/05/27 03:12:18;;;;;;;14.30;3.10;;;12.10;99.90;;;;;;4946787;28;20062;-74
2022/05/27 03:15:04;;;;;;;12.73;4.10;;;12.10;99.90;;;;;;4946785;28;20565;-74
2022/05/27 03:18:14;;;;;;;17.92;3.33;;;12.20;99.90;;;;;;4935962;28;20083;-74
2022/05/27 03:20:54;;;;;;;12.07;2.95;;;12.10;99.90;;;;;;4938591;28;20466;-75
2022/05/27 03:24:01;;;;;;;9.88;3.10;;;12.00;99.90;;;;;;4946447;28;20043;-74
2022/05/27 03:26:49;;;;;;;11.38;2.53;;;12.10;99.90;;;;;;4963077;28;20047;-74
2022/05/27 03:29:27;;;;;;;14.60;2.95;;;12.00;99.90;;;;;;4941634;28;20398;-74
2022/05/27 03:32:15;;;;;;;7.80;2.70;;;12.10;99.90;;;;;;4942212;28;20049;-75
2022/05/27 03:34:53;;;;;;;17.42;4.13;;;12.00;99.90;;;;;;4941331;28;20126;-75
2022/05/27 03:37:30;;;;;;;13.73;3.35;;;12.00;99.90;;;;;;4940866;28;20070;-73
2022/05/27 03:40:31;;;;;;;14.05;3.80;;;12.10;99.90;;;;;;4923313;28;20039;-75
2022/05/27 03:42:58;;;;;;;17.73;4.43;;;12.10;99.90;;;;;;4920486;29;20182;-75
2022/05/27 03:45:24;;;;;;;16.85;3.05;;;12.00;99.90;;;;;;4941296;29;20059;-74
2022/05/27 03:47:51;;;;;;;14.68;3.00;;;12.00;99.90;;;;;;4943789;28;20130;-75
2022/05/27 03:50:21;;;;;;;10.25;3.20;;;12.00;99.90;;;;;;4940641;28;20082;-74
2022/05/27 03:52:50;;;;;;;15.30;4.93;;;12.00;99.90;;;;;;4941203;28;20055;-75
2022/05/27 03:55:24;;;;;;;15.43;3.20;;;12.10;99.90;;;;;;4940755;28;20036;-73
2022/05/27 03:57:49;;;;;;;12.75;3.15;;;12.10;99.90;;;;;;4940886;28;20127;-75
2022/05/27 04:00:17;;;;;;;24.80;3.83;;;12.00;99.90;;;;;;4941974;28;20679;-73
2022/05/27 04:02:44;;;;;;;14.73;3.03;;;12.00;99.90;;;;;;4940473;28;20058;-74
2022/05/27 04:05:16;;;;;;;17.70;3.88;;;12.00;99.90;;;;;;4941756;28;20062;-75
2022/05/27 04:07:42;;;;;;;17.88;2.55;;;12.00;99.90;;;;;;4939843;28;20099;-73
2022/05/27 04:10:08;;;;;;;11.90;3.08;;;12.10;99.90;;;;;;4939116;28;20071;-76
2022/05/27 04:12:35;;;;;;;18.30;5.28;;;12.20;99.90;;;;;;4941302;28;20035;-75
2022/05/27 04:15:02;;;;;;;13.82;2.70;;;12.10;99.90;;;;;;4938726;28;20119;-75
2022/05/27 04:17:30;;;;;;;12.07;3.05;;;12.20;99.90;;;;;;4940571;28;20047;-74
2022/05/27 04:19:57;;;;;;;22.48;4.30;;;12.20;99.90;;;;;;4942744;28;20055;-75
2022/05/27 04:22:23;;;;;;;9.45;2.55;;;12.20;99.90;;;;;;4943442;28;20112;-75
2022/05/27 04:24:49;;;;;;;13.63;3.40;;;12.20;99.90;;;;;;4941580;28;20047;-75
2022/05/27 04:27:18;;;;;;;16.80;3.28;;;12.40;99.90;;;;;;4945011;28;20035;-75
2022/05/27 04:29:49;;;;;;;14.32;3.28;;;12.70;99.90;;;;;;4940238;28;20151;-74
2022/05/27 04:32:15;;;;;;;15.77;3.30;;;12.80;99.90;;;;;;4940975;28;20136;-75
2022/05/27 04:34:42;;;;;;;19.95;2.67;;;12.70;99.90;;;;;;4939963;28;20155;-75
2022/05/27 04:37:09;;;;;;;17.50;3.42;;;12.70;99.90;;;;;;4937370;28;20078;-74
2022/05/27 04:39:35;;;;;;;22.70;3.42;;;12.70;99.90;;;;;;4941686;28;20043;-75
2022/05/27 04:42:01;;;;;;;14.05;2.47;;;12.70;99.90;;;;;;4939165;28;20126;-74
2022/05/27 04:44:27;;;;;;;17.95;3.45;;;12.70;99.90;;;;;;4940060;28;20106;-75
2022/05/27 04:46:53;;;;;;;15.50;2.88;;;12.60;99.90;;;;;;4937845;28;20043;-76
2022/05/27 04:52:03;;;;;;;14.77;3.00;;;12.40;99.90;;;;;;4944406;28;20392;-74
2022/05/27 04:54:29;;;;;;;15.60;4.13;;;12.40;99.90;;;;;;4943163;28;20054;-74
2022/05/27 04:56:55;;;;;;;8.52;2.13;;;12.40;99.90;;;;;;4941988;28;20051;-73
2022/05/27 04:59:21;;;;;;;18.00;2.78;;;12.30;99.90;;;;;;4947045;28;20056;-75
2022/05/27 05:01:48;;;;;;;17.50;3.67;;;12.20;99.90;;;;;;4941415;28;20151;-74
2022/05/27 05:04:13;;;;;;;12.93;3.45;;;12.20;99.90;;;;;;4940158;28;20556;-73
2022/05/27 05:06:40;;;;;;;21.23;4.18;;;12.20;99.90;;;;;;4938825;28;20078;-74
2022/05/27 05:09:05;;;;;;;10.93;2.13;;;12.30;99.90;;;;;;4918190;28;20118;-77
2022/05/27 05:11:31;;;;;;;18.27;3.45;;;12.20;99.90;;;;;;4940476;28;20039;-74
2022/05/27 05:13:57;;;;;;;15.75;3.22;;;12.30;99.90;;;;;;4939704;28;20046;-74
2022/05/27 05:16:22;;;;;;;9.90;3.15;;;12.30;99.90;;;;;;4941909;28;20489;-74
2022/05/27 05:18:48;;;;;;;12.18;3.20;;;12.20;99.90;;;;;;4942778;28;20118;-74
2022/05/27 05:21:15;;;;;;;13.38;3.72;;;12.20;99.90;;;;;;4938867;28;20106;-74
2022/05/27 05:23:40;;;;;;;39.20;5.55;;;12.30;99.90;;;;;;4940688;28;20058;-74
2022/05/27 05:26:06;;;;;;;12.82;2.95;;;12.40;99.90;;;;;;4938321;28;20307;-74
2022/05/27 05:28:32;;;;;;;16.73;2.90;;;12.30;99.90;;;;;;4939451;28;20036;-74
2022/05/27 05:30:57;;;;;;;8.80;2.70;;;12.30;99.90;;;;;;4942585;28;20126;-74
2022/05/27 05:33:23;;;;;;;15.68;3.90;;;12.30;99.90;;;;;;4940974;28;20133;-72
2022/05/27 05:35:49;;;;;;;17.30;2.75;;;12.50;99.90;;;;;;4940014;28;20043;-75
2022/05/27 05:38:15;;;;;;;11.27;2.67;;;12.60;99.90;;;;;;4945481;28;20039;-74
2022/05/27 05:40:41;;;;;;;20.65;3.70;;;12.60;99.90;;;;;;4943225;28;20406;-74
2022/05/27 05:43:07;;;;;;;14.15;2.65;;;12.70;99.90;;;;;;4946199;28;20047;-74
2022/05/27 05:45:32;;;;;;;14.77;4.68;;;12.80;99.90;;;;;;4939608;28;20153;-75
2022/05/27 05:47:58;;;;;;;14.43;3.75;;;12.90;99.90;;;;;;4937565;28;21728;-75
2022/05/27 05:50:24;;;;;;;18.60;3.95;;;12.90;99.90;;;;;;4939460;28;20051;-75
2022/05/27 05:52:50;;;;;;;16.95;3.08;;;12.80;99.90;;;;;;4938302;28;20458;-75
2022/05/27 05:55:18;;;;;;;13.18;2.70;;;12.90;99.90;;;;;;4938298;28;20130;-74
2022/05/27 05:57:45;;;;;;;19.10;4.20;;;13.00;99.90;;;;;;4939114;28;20113;-75
2022/05/27 06:00:16;;;;;;;22.17;3.35;;;12.90;99.90;;;;;;4939433;28;20110;-75
2022/05/27 06:02:42;;;;;;;13.68;3.22;;;12.90;99.90;;;;;;4938490;28;20422;-76
2022/05/27 06:05:09;;;;;;;19.17;4.65;;;13.00;99.90;;;;;;4959586;28;20045;-76
2022/05/27 06:07:34;;;;;;;11.10;2.47;;;13.00;99.90;;;;;;4936830;28;20050;-74
2022/05/27 06:10:01;;;;;;;18.08;4.40;;;12.90;99.90;;;;;;4956682;28;20043;-73
2022/05/27 06:12:27;;;;;;;20.10;2.97;;;13.00;99.90;;;;;;4941068;28;20042;-75
2022/05/27 06:14:56;;;;;;;17.95;3.55;;;13.10;99.90;;;;;;4939336;28;20414;-75
2022/05/27 06:17:22;;;;;;;13.85;2.75;;;13.10;99.90;;;;;;4937836;28;20047;-75
2022/05/27 06:19:48;;;;;;;38.83;4.18;;;13.10;99.90;;;;;;4938086;28;20477;-74
2022/05/27 06:22:13;;;;;;;12.57;2.92;;;13.10;99.90;;;;;;4939597;28;20051;-75
2022/05/27 06:24:39;;;;;;;15.10;3.35;;;13.10;99.90;;;;;;4938641;28;20047;-74
2022/05/27 06:27:06;;;;;;;16.13;3.38;;;13.10;99.90;;;;;;4937709;28;20051;-74
2022/05/27 06:35:01;;;;;;;7.90;2.15;;;13.10;99.90;;;;;;4937691;28;20410;-75
2022/05/27 06:37:27;;;;;;;13.95;2.75;;;13.10;99.90;;;;;;4939638;28;20090;-77
2022/05/27 06:39:54;;;;;;;15.23;2.63;;;13.20;99.90;;;;;;4943968;28;20087;-78
2022/05/27 06:42:21;;;;;;;18.13;2.47;;;13.20;99.90;;;;;;4947660;28;20047;-76
2022/05/27 06:44:46;;;;;;;17.58;3.40;;;13.20;99.90;;;;;;4944469;28;20089;-79
2022/05/27 06:47:13;;;;;;;11.13;2.17;;;13.20;99.90;;;;;;4947573;28;20079;-75
2022/05/27 06:49:40;;;;;;;15.30;3.03;;;13.40;99.90;;;;;;4945805;28;20089;-76
2022/05/27 06:52:07;;;;;;;9.50;3.03;;;13.50;99.90;;;;;;4939978;28;20122;-75
2022/05/27 06:54:34;;;;;;;7.90;2.85;;;13.60;99.90;;;;;;4941206;28;20027;-76
2022/05/27 06:57:00;;;;;;;12.82;4.18;;;14.40;99.90;;;;;;4939591;28;20047;-75
2022/05/27 06:59:25;;;;;;;12.57;4.13;;;15.20;99.90;;;;;;4941963;28;20458;-74
2022/05/27 07:01:51;;;;;;;9.52;1.90;;;15.60;99.90;;;;;;4939058;28;20035;-74
2022/05/27 07:04:20;;;;;;;12.10;2.80;;;16.30;99.90;;;;;;4937534;28;20860;-75
2022/05/27 07:06:48;;;;;;;10.10;2.63;;;15.00;99.90;;;;;;4947600;28;20039;-74
2022/05/27 07:09:17;;;;;;;11.55;2.88;;;16.40;99.90;;;;;;4947324;28;20563;-74
2022/05/27 07:11:45;;;;;;;14.32;2.38;;;16.40;99.90;;;;;;4946226;28;20172;-70
2022/05/27 07:14:13;;;;;;;16.73;2.95;;;16.90;99.90;;;;;;4940142;28;20086;-75
2022/05/27 07:16:39;;;;;;;13.52;2.33;;;17.10;99.90;;;;;;4938303;28;20433;-76
2022/05/27 07:19:05;;;;;;;13.60;2.65;;;17.60;99.90;;;;;;4939840;28;20042;-76
2022/05/27 07:21:31;;;;;;;13.02;3.20;;;17.90;99.90;;;;;;4954113;28;20051;-74
2022/05/27 07:23:57;;;;;;;13.85;3.50;;;17.20;99.90;;;;;;4940125;28;20058;-74
2022/05/27 07:26:24;;;;;;;16.77;4.10;;;17.80;99.90;;;;;;4942762;28;20043;-73
2022/05/27 07:28:50;;;;;;;17.95;3.08;;;17.10;99.90;;;;;;4946620;28;20501;-74
2022/05/27 07:31:17;;;;;;;15.20;3.15;;;15.80;99.90;;;;;;4945766;28;20039;-75
2022/05/27 07:33:44;;;;;;;19.05;5.03;;;15.00;99.90;;;;;;4927106;28;20065;-74
2022/05/27 07:36:11;;;;;;;14.23;3.20;;;14.50;99.90;;;;;;4947076;28;20510;-76
2022/05/27 07:38:37;;;;;;;12.70;3.47;;;15.40;99.90;;;;;;4946681;28;20209;-75
2022/05/27 07:41:03;;;;;;;13.00;3.08;;;15.60;99.90;;;;;;4960314;28;20617;-75
2022/05/27 07:43:29;;;;;;;14.82;2.80;;;15.10;99.90;;;;;;4943583;28;20039;-75
2022/05/27 07:45:56;;;;;;;17.17;3.97;;;15.00;99.90;;;;;;4944558;28;20035;-75
2022/05/27 07:48:22;;;;;;;11.75;3.88;;;15.40;99.90;;;;;;4944985;28;20059;-74
2022/05/27 07:50:48;;;;;;;11.32;3.00;;;15.10;99.90;;;;;;4945944;28;20045;-75
2022/05/27 07:53:15;;;;;;;12.85;2.60;;;14.60;99.90;;;;;;4942754;28;20051;-75
2022/05/27 07:55:41;;;;;;;14.32;2.70;;;14.60;99.90;;;;;;4947788;28;20055;-75
2022/05/27 07:58:07;;;;;;;13.43;3.63;;;14.50;99.90;;;;;;4946895;28;20054;-75
2022/05/27 08:00:35;;;;;;;14.57;3.42;;;14.70;99.90;;;;;;4945472;28;20047;-75
2022/05/27 08:03:01;;;;;;;18.60;4.30;;;14.70;99.90;;;;;;4945370;28;20106;-76
2022/05/27 08:05:28;;;;;;;13.82;3.13;;;15.00;99.90;;;;;;4946543;28;20380;-74
2022/05/27 08:07:57;;;;;;;11.75;3.28;;;15.00;99.90;;;;;;4940963;28;20047;-74
2022/05/27 08:10:26;;;;;;;7.93;2.00;;;15.20;99.90;;;;;;4943133;28;20035;-74
2022/05/27 08:12:52;;;;;;;16.90;3.95;;;14.90;99.90;;;;;;4946745;28;20047;-74
2022/05/27 08:15:17;;;;;;;13.23;2.75;;;15.30;99.90;;;;;;4938295;28;21437;-74
2022/05/27 08:17:43;;;;;;;13.98;3.50;;;15.20;99.90;;;;;;4944975;28;20502;-74
2022/05/27 08:20:12;;;;;;;15.65;2.75;;;15.10;99.90;;;;;;4945992;28;20047;-74
2022/05/27 08:22:38;;;;;;;23.67;5.20;;;15.20;99.90;;;;;;4944358;28;20043;-74
2022/05/27 08:25:05;;;;;;;12.60;2.78;;;14.90;99.90;;;;;;4946176;28;20043;-75
2022/05/27 08:27:30;;;;;;;14.93;3.53;;;15.00;99.90;;;;;;4943109;28;20138;-74
2022/05/27 08:29:56;;;;;;;19.95;3.58;;;14.80;99.90;;;;;;4947899;28;20130;-76
2022/05/27 08:32:21;;;;;;;16.33;4.10;;;15.10;99.90;;;;;;4943667;28;20537;-74
2022/05/27 08:40:47;;;;;;;10.70;2.97;;;15.20;99.90;;;;;;4944710;28;20050;-74
2022/05/27 08:43:44;;;;;;;27.80;4.13;;;14.90;99.90;;;;;;4946220;28;20058;-75
2022/05/27 08:46:32;;;;;;;19.50;4.47;;;15.10;99.90;;;;;;4943213;28;20411;-75
2022/05/27 08:49:03;;;;;;;15.60;3.85;;;15.70;99.90;;;;;;4928819;29;20154;-75
2022/05/27 08:51:46;;;;;;;10.23;2.70;;;15.20;99.90;;;;;;4943505;28;21431;-75
2022/05/27 08:54:20;;;;;;;14.43;2.95;;;15.00;99.90;;;;;;4946565;28;20478;-74
2022/05/27 08:59:51;;;;;;;12.43;3.13;;;15.30;99.90;;;;;;4927240;29;20052;-75
2022/05/27 09:02:43;;;;;;;12.05;2.10;;;15.50;99.90;;;;;;4934881;28;20043;-75
2022/05/27 09:05:31;;;;;;;11.82;2.67;;;15.00;99.90;;;;;;4942671;29;20039;-75
2022/05/27 09:08:23;;;;;;;9.38;2.05;;;15.50;99.90;;;;;;4936888;28;20134;-75
2022/05/27 09:11:07;;;;;;;14.27;2.80;;;15.60;99.90;;;;;;4935420;28;20046;-74
2022/05/27 09:13:45;;;;;;;8.75;2.00;;;15.60;99.90;;;;;;4943764;28;20047;-74
2022/05/27 09:16:17;;;;;;;14.05;3.00;;;15.50;99.90;;;;;;4937271;28;20101;-75
2022/05/27 09:19:00;;;;;;;14.68;3.25;;;15.50;99.90;;;;;;4940015;28;20054;-74
2022/05/27 09:21:55;;;;;;;9.65;3.30;;;15.50;99.90;;;;;;4945266;28;20547;-74
2022/05/27 09:24:30;;;;;;;14.13;2.85;;;15.40;99.90;;;;;;4938102;28;20490;-74
2022/05/27 09:27:33;;;;;;;14.98;2.75;;;15.40;99.90;;;;;;4938172;28;20063;-74
2022/05/27 09:30:09;;;;;;;8.25;2.67;;;15.20;99.90;;;;;;4918465;29;20059;-74
2022/05/27 09:32:56;;;;;;;12.70;3.08;;;15.60;99.90;;;;;;4935755;28;20039;-75
2022/05/27 09:35:41;;;;;;;11.85;2.25;;;15.10;99.90;;;;;;4951831;28;20047;-75
2022/05/27 09:38:08;;;;;;;13.52;3.28;;;14.80;99.90;;;;;;4948879;28;20070;-75
2022/05/27 09:40:33;;;;;;;14.75;3.15;;;15.20;99.90;;;;;;4942999;28;20402;-74
2022/05/27 09:43:12;;;;;;;14.43;2.40;;;15.00;99.90;;;;;;4943066;28;20046;-75
2022/05/27 09:45:39;;;;;;;11.32;3.22;;;15.00;99.90;;;;;;4940348;28;20041;-75
2022/05/27 09:48:06;;;;;;;21.13;5.32;;;15.20;99.90;;;;;;4944232;28;20059;-75
2022/05/27 09:50:40;;;;;;;18.25;3.65;;;15.40;99.90;;;;;;4946038;28;20458;-74
2022/05/27 09:53:07;;;;;;;8.65;2.38;;;15.60;99.90;;;;;;4939918;28;20848;-75
2022/05/27 09:55:39;;;;;;;15.23;3.55;;;15.60;99.90;;;;;;4945854;29;20047;-75
2022/05/27 09:58:06;;;;;;;10.40;3.35;;;15.10;99.90;;;;;;4942532;28;20122;-75
2022/05/27 10:00:52;;;;;;;10.65;3.10;;;15.30;99.90;;;;;;4946086;28;20465;-75
2022/05/27 10:03:34;;;;;;;13.68;3.05;;;15.00;99.90;;;;;;4944016;28;20110;-76
2022/05/27 10:06:10;;;;;;;16.30;2.65;;;15.40;99.90;;;;;;4944794;28;20043;-74
2022/05/27 10:08:43;;;;;;;8.90;1.83;;;15.60;99.90;;;;;;4944272;28;20059;-75
2022/05/27 10:11:24;;;;;;;14.15;2.67;;;15.80;99.90;;;;;;4945780;28;20122;-75
2022/05/27 10:14:22;;;;;;;8.32;3.58;;;16.00;99.90;;;;;;4949326;28;20118;-75
2022/05/27 10:17:11;;;;;;;10.52;2.15;;;15.90;99.90;;;;;;4948558;28;20529;-74
2022/05/27 10:19:37;;;;;;;10.70;3.88;;;15.90;99.90;;;;;;4933929;28;20159;-75
2022/05/27 10:22:28;;;;;;;11.63;3.38;;;16.30;99.90;;;;;;4943083;28;20031;-75
2022/05/27 10:25:04;;;;;;;11.20;3.67;;;15.70;99.90;;;;;;4946029;29;20070;-74
2022/05/27 10:27:40;;;;;;;12.15;2.38;;;15.60;99.90;;;;;;4952634;28;20552;-75
2022/05/27 10:30:28;;;;;;;13.57;2.17;;;14.90;99.90;;;;;;4949872;28;20445;-76
2022/05/27 10:32:56;;;;;;;15.40;3.95;;;15.30;99.90;;;;;;4939455;28;20043;-76
2022/05/27 10:35:27;;;;;;;9.43;3.22;;;15.40;99.90;;;;;;4938501;28;20077;-75
2022/05/27 10:38:11;;;;;;;15.93;4.20;;;15.80;99.90;;;;;;4933249;28;20043;-72
2022/05/27 10:40:55;;;;;;;9.13;2.25;;;15.50;99.90;;;;;;4937952;28;20035;-73
2022/05/27 10:44:03;;;;;;;18.20;2.55;;;15.40;99.90;;;;;;4939917;28;20387;-74
2022/05/27 10:46:41;;;;;;;7.55;2.65;;;15.40;99.90;;;;;;4933463;29;20447;-73
2022/05/27 10:49:29;;;;;;;11.88;3.33;;;15.40;99.90;;;;;;4946264;28;20314;-73
2022/05/27 10:52:15;;;;;;;14.98;2.47;;;15.20;99.90;;;;;;4946762;28;20163;-74
2022/05/27 10:55:26;;;;;;;14.73;3.15;;;14.90;99.90;;;;;;4946584;29;20079;-74
2022/05/27 11:03:40;;;;;;;13.27;3.00;;;15.60;99.90;;;;;;4940131;28;20119;-75
2022/05/27 11:06:45;;;;;;;7.40;2.28;;;15.80;99.90;;;;;;4929832;29;20415;-75
2022/05/27 11:09:22;;;;;;;7.85;2.53;;;15.80;99.90;;;;;;4923828;28;20052;-77
2022/05/27 11:12:19;;;;;;;10.27;2.55;;;15.50;99.90;;;;;;4949687;28;20066;-75
2022/05/27 11:15:25;;;;;;;19.30;2.67;;;15.20;99.90;;;;;;4948054;28;20126;-74
2022/05/27 11:17:50;;;;;;;9.32;2.55;;;15.60;99.90;;;;;;4929926;28;20459;-75
2022/05/27 11:20:46;;;;;;;12.43;2.95;;;15.00;99.90;;;;;;4947598;28;20039;-73
2022/05/27 11:23:49;;;;;;;16.17;5.97;;;14.90;99.90;;;;;;4947329;28;20043;-73
2022/05/27 11:26:37;;;;;;;12.02;3.50;;;14.80;99.90;;;;;;4962604;28;20051;-74
2022/05/27 11:29:21;;;;;;;22.88;3.55;;;14.80;99.90;;;;;;4948061;28;20074;-75
2022/05/27 11:32:21;;;;;;;13.60;2.60;;;14.50;99.90;;;;;;4944832;29;20106;-76
2022/05/27 11:35:23;;;;;;;11.60;4.23;;;14.90;99.90;;;;;;4946297;28;20059;-77
2022/05/27 11:38:14;;;;;;;13.88;3.63;;;15.20;99.90;;;;;;4930905;29;20126;-76
2022/05/27 11:41:07;;;;;;;14.25;4.63;;;15.10;99.90;;;;;;4948002;28;20083;-76
2022/05/27 11:44:28;;;;;;;14.63;4.03;;;14.70;99.90;;;;;;4947634;28;20102;-75
2022/05/27 11:47:30;;;;;;;18.30;4.85;;;14.70;99.90;;;;;;4936992;28;20079;-76
2022/05/27 11:50:18;;;;;;;12.88;3.47;;;14.80;99.90;;;;;;4947273;29;20130;-75
2022/05/27 11:53:09;;;;;;;10.50;3.47;;;15.00;99.90;;;;;;4947689;28;20055;-76
2022/05/27 11:55:47;;;;;;;16.27;4.75;;;15.00;99.90;;;;;;4948020;28;20047;-74
2022/05/27 11:58:22;;;;;;;11.05;3.38;;;14.80;99.90;;;;;;4939360;28;20118;-74
2022/05/27 12:01:05;;;;;;;17.27;3.35;;;14.80;99.90;;;;;;4943521;28;20058;-75
2022/05/27 12:03:51;;;;;;;10.70;3.47;;;14.80;99.90;;;;;;4943186;28;20058;-74
2022/05/27 12:06:38;;;;;;;11.18;2.97;;;14.90;99.90;;;;;;4940942;28;20399;-72
2022/05/27 12:09:13;;;;;;;14.45;3.33;;;14.80;99.90;;;;;;4937741;28;20076;-76
2022/05/27 12:11:56;;;;;;;14.73;2.72;;;14.80;99.90;;;;;;4945730;28;20043;-75
2022/05/27 12:14:36;;;;;;;18.45;3.85;;;14.80;99.90;;;;;;4941419;28;20070;-74
2022/05/27 12:17:05;;;;;;;21.65;4.85;;;14.80;99.90;;;;;;4941568;28;20066;-75
2022/05/27 12:19:38;;;;;;;17.65;4.65;;;14.50;99.90;;;;;;4928759;29;20494;-74
2022/05/27 12:22:12;;;;;;;13.52;4.22;;;15.00;99.90;;;;;;4945914;28;20090;-74
2022/05/27 12:24:47;;;;;;;13.35;3.60;;;15.10;99.90;;;;;;4947322;28;20086;-73
2022/05/27 12:27:15;;;;;;;10.95;3.53;;;15.00;99.90;;;;;;4946695;28;20046;-79
2022/05/27 12:29:46;;;;;;;9.63;2.15;;;14.80;99.90;;;;;;4943289;28;20402;-78
2022/05/27 12:32:13;;;;;;;10.88;3.53;;;14.70;99.90;;;;;;4947237;28;20062;-79
2022/05/27 12:34:45;;;;;;;15.85;3.58;;;14.90;99.90;;;;;;4942938;28;20039;-77
2022/05/27 12:37:28;;;;;;;14.57;4.97;;;14.40;99.90;;;;;;4961395;28;20047;-79
2022/05/27 12:40:18;;;;;;;11.32;2.58;;;14.10;99.90;;;;;;4939780;28;20056;-81
2022/05/27 12:42:44;;;;;;;;;;;14.70;99.90;;;;;;4938812;28;20434;-81
2022/05/27 12:45:20;;;;;;;13.45;2.47;;;14.90;99.90;;;;;;4945480;28;19922;-78
2022/05/27 12:47:50;;;;;;;21.38;2.80;;;14.70;99.90;;;;;;4939625;28;20047;-79
2022/05/27 12:50:31;;;;;;;14.55;4.47;;;14.80;99.90;;;;;;4938625;28;20073;-81
2022/05/27 12:53:12;;;;;;;13.70;4.22;;;15.20;99.90;;;;;;4938567;28;20122;-74
2022/05/27 13:01:41;;;;;;;14.40;3.15;;;15.40;99.90;;;;;;4943973;28;20129;-76
2022/05/27 13:04:07;;;;;;;15.82;4.25;;;15.20;99.90;;;;;;4946459;28;20633;-75
2022/05/27 13:06:35;;;;;;;14.95;3.97;;;14.90;99.90;;;;;;4943951;28;20126;-76
2022/05/27 13:09:06;;;;;;;9.50;1.92;;;14.90;99.90;;;;;;4944513;29;20047;-78
2022/05/27 13:11:33;;;;;;;11.25;2.58;;;14.60;99.90;;;;;;4928579;29;20724;-75
2022/05/27 13:14:06;;;;;;;9.05;2.53;;;14.70;99.90;;;;;;4944617;28;20137;-75
2022/05/27 13:16:46;;;;;;;16.02;3.08;;;15.20;99.90;;;;;;4941305;28;20047;-75
2022/05/27 13:19:32;;;;;;;;;;;14.80;99.90;;;;;;4927818;29;20453;-75
2022/05/27 13:22:04;;;;;;;12.50;3.15;;;14.70;99.90;;;;;;4926087;28;19930;-76
2022/05/27 13:24:33;;;;;;;15.25;3.78;;;14.70;99.90;;;;;;4958154;28;20087;-77
2022/05/27 13:27:22;;;;;;;13.98;2.20;;;14.90;99.90;;;;;;4927111;29;20083;-74
2022/05/27 13:29:53;;;;;;;9.80;3.13;;;14.70;99.90;;;;;;4941788;29;20394;-76
2022/05/27 13:32:31;;;;;;;9.98;2.35;;;14.70;99.90;;;;;;4943284;28;20086;-75
2022/05/27 13:35:01;;;;;;;17.05;4.85;;;14.70;99.90;;;;;;4928627;29;20521;-75
2022/05/27 13:37:40;;;;;;;12.60;3.65;;;14.80;99.90;;;;;;4942513;28;20431;-75
2022/05/27 13:40:08;;;;;;;13.55;2.70;;;14.70;99.90;;;;;;4944066;28;20047;-74
2022/05/27 13:42:37;;;;;;;19.33;3.78;;;15.20;99.90;;;;;;4944613;28;20039;-76
2022/05/27 13:45:14;;;;;;;14.27;4.18;;;15.20;99.90;;;;;;4944500;29;20102;-74
2022/05/27 13:47:47;;;;;;;14.90;3.17;;;15.20;99.90;;;;;;4943309;28;20039;-74
2022/05/27 13:50:28;;;;;;;12.80;4.13;;;15.10;99.90;;;;;;4945444;28;20110;-75